Time;durP1;ratioP1;P1;durP2;ratioP2;P2;SDS_P1;SDS_P2;PMS_P1;PMS_P2;Temp;Humidity;BMP_temperature;BMP_pressure;BME280_temperature;BME280_humidity;BME280_pressure;Samples;Min_cycle;Max_cycle;Signal;HPM_P1;HPM_P2
2022/11/11 00:01:07;;;;;;;5.28;4.97;;;;;;;5.93;100.00;102230.16;6148153;23;20087;-74
2022/11/11 00:03:33;;;;;;;5.25;4.93;;;;;;;6.98;100.00;102406.59;6115751;23;20025;-73
2022/11/11 00:06:05;;;;;;;4.93;4.57;;;;;;;6.94;100.00;102399.69;6150453;23;20081;-73
2022/11/11 00:08:32;;;;;;;4.60;4.38;;;;;;;6.75;100.00;102384.19;6119525;23;20033;-73
2022/11/11 00:11:03;;;;;;;4.68;4.38;;;;;;;6.84;100.00;102393.69;6177585;23;20009;-73
2022/11/11 00:13:30;;;;;;;4.90;4.50;;;;;;;6.72;100.00;102389.44;6114574;23;20025;-73
2022/11/11 00:16:07;;;;;;;5.55;5.15;;;;;;;6.36;100.00;102338.47;6164124;23;20232;-73
2022/11/11 00:27:04;;;;;;;4.30;4.10;;;;;;;6.76;100.00;102427.66;6169990;23;20026;-72
2022/11/11 00:29:31;;;;;;;4.72;4.43;;;;;;;6.31;100.00;102359.34;6111329;23;20027;-73
2022/11/11 00:35:51;;;;;;;4.78;4.47;;;;;;;6.06;100.00;102350.84;6114130;23;20034;-73
2022/11/11 00:37:31;;;;;;;5.03;4.63;;;;;;;5.72;100.00;102300.66;6169737;23;20056;-73
2022/11/11 00:39:58;;;;;;;4.78;4.47;;;;;;;6.48;100.00;102436.59;6112986;23;20164;-73
2022/11/11 00:42:25;;;;;;;6.70;5.25;;;;;;;6.41;100.00;102430.53;6165377;23;20096;-73
2022/11/11 00:44:51;;;;;;;5.25;4.95;;;;;;;6.34;100.00;102421.03;6141364;23;20031;-72
2022/11/11 00:52:51;;;;;;;4.78;4.45;;;;;;;6.29;100.00;102418.44;6137156;23;20744;-74
2022/11/11 00:55:17;;;;;;;4.85;4.45;;;;;;;5.40;100.00;102247.03;6169216;23;20029;-74
2022/11/11 00:57:43;;;;;;;5.25;4.85;;;;;;;6.06;100.00;102371.69;6136940;23;20038;-73
2022/11/11 01:00:11;;;;;;;6.97;4.85;;;;;;;6.55;100.00;102427.84;6170297;23;20728;-73
2022/11/11 01:02:37;;;;;;;5.82;5.43;;;;;;;6.52;100.00;102417.44;6115894;23;20195;-74
2022/11/11 01:05:03;;;;;;;8.10;5.72;;;;;;;6.14;100.00;102367.28;6171410;23;20078;-73
2022/11/11 01:07:30;;;;;;;6.93;5.57;;;;;;;6.46;100.00;102427.91;6143585;23;20107;-76
2022/11/11 01:09:57;;;;;;;5.05;4.65;;;;;;;6.34;100.00;102403.66;6170231;23;20040;-73
2022/11/11 01:12:24;;;;;;;5.53;5.13;;;;;;;6.66;100.00;102454.72;6129346;23;20045;-72
2022/11/11 01:14:50;;;;;;;5.00;4.60;;;;;;;5.27;100.00;102245.34;6175178;23;20032;-72
2022/11/11 01:17:16;;;;;;;5.20;4.90;;;;;;;5.92;100.00;102382.16;6128636;23;20079;-73
2022/11/11 01:19:43;;;;;;;4.00;3.80;;;;;;;5.74;100.00;102361.44;6170181;23;20052;-73
2022/11/11 01:22:09;;;;;;;4.97;4.68;;;;;;;6.25;100.00;102444.56;6142257;23;20031;-73
2022/11/11 01:24:37;;;;;;;8.90;5.53;;;;;;;6.22;100.00;102448.06;6143776;23;20028;-73
2022/11/11 01:27:03;;;;;;;5.63;5.13;;;;;;;5.95;100.00;102404.75;6087800;23;20013;-72
2022/11/11 01:29:30;;;;;;;5.15;4.70;;;;;;;6.34;100.00;102467.97;6170684;23;20021;-73
2022/11/11 01:31:56;;;;;;;8.68;5.22;;;;;;;5.88;100.00;102408.25;6130553;23;20433;-73
2022/11/11 01:34:23;;;;;;;4.55;4.35;;;;;;;5.66;100.00;102374.47;6172111;23;20009;-72
2022/11/11 01:36:49;;;;;;;4.55;4.28;;;;;;;5.80;100.00;102400.47;6128968;23;20029;-73
2022/11/11 01:39:16;;;;;;;5.95;5.35;;;;;;;6.06;100.00;102439.47;6172642;23;20012;-72
2022/11/11 01:41:43;;;;;;;6.00;5.50;;;;;;;6.33;100.00;102498.38;6127346;23;20021;-73
2022/11/11 01:44:09;;;;;;;9.90;5.00;;;;;;;6.29;100.00;102483.63;6170944;23;20231;-73
2022/11/11 01:46:52;;;;;;;5.68;5.25;;;;;;;6.30;100.00;102488.00;6114675;23;20030;-73
2022/11/11 01:49:28;;;;;;;5.32;4.93;;;;;;;6.33;100.00;102489.69;6144148;23;20050;-72
2022/11/11 01:52:08;;;;;;;4.90;4.50;;;;;;;5.77;100.00;102397.88;6137527;23;20085;-72
2022/11/11 01:54:39;;;;;;;4.10;3.90;;;;;;;6.36;100.00;102490.56;6146604;23;20024;-73
2022/11/11 01:57:35;;;;;;;6.15;5.22;;;;;;;6.34;100.00;102492.31;6111207;23;20078;-73
2022/11/11 02:00:06;;;;;;;4.78;4.40;;;;;;;6.32;100.00;102504.50;6143640;23;20442;-74
2022/11/11 02:02:39;;;;;;;5.90;5.47;;;;;;;5.75;100.00;102397.91;6092000;23;20045;-72
2022/11/11 02:07:58;;;;;;;5.68;5.20;;;;;;;6.18;100.00;102483.69;6113400;23;20077;-73
2022/11/11 02:10:27;;;;;;;5.15;4.40;;;;;;;5.35;100.00;102360.72;6169692;23;20029;-72
2022/11/11 02:15:40;;;;;;;6.30;5.45;;;;;;;5.81;100.00;102467.31;6173269;23;20032;-72
2022/11/11 02:18:06;;;;;;;5.10;4.80;;;;;;;6.13;100.00;102519.38;6112660;23;20052;-72
2022/11/11 02:20:38;;;;;;;4.85;4.55;;;;;;;5.67;100.00;102445.66;6171054;23;20021;-73
2022/11/11 02:23:13;;;;;;;5.47;5.13;;;;;;;5.80;100.00;102463.84;6110754;23;20017;-72
2022/11/11 02:25:45;;;;;;;5.43;5.05;;;;;;;5.80;100.00;102449.97;6161762;23;20133;-72
2022/11/11 02:28:13;;;;;;;5.50;5.00;;;;;;;5.55;100.00;102408.41;6137239;23;20444;-73
2022/11/11 02:30:39;;;;;;;9.52;5.30;;;;;;;6.18;100.00;102508.91;6180856;23;20403;-72
2022/11/11 02:33:06;;;;;;;5.00;4.65;;;;;;;5.92;100.00;102473.38;6112141;23;20028;-72
2022/11/11 02:35:36;;;;;;;5.38;5.05;;;;;;;6.22;100.00;102525.41;6142035;23;20298;-74
2022/11/11 02:38:08;;;;;;;6.30;4.65;;;;;;;5.79;100.00;102458.66;6114059;23;20421;-74
2022/11/11 02:43:31;;;;;;;6.28;5.45;;;;;;;5.98;100.00;102504.66;6114998;23;20025;-73
2022/11/11 02:45:58;;;;;;;4.82;4.55;;;;;;;5.45;100.00;102409.28;6173333;23;20020;-73
2022/11/11 02:48:26;;;;;;;4.57;4.28;;;;;;;5.85;100.00;102479.47;6113463;23;20077;-74
2022/11/11 02:50:53;;;;;;;3.97;3.78;;;;;;;6.15;100.00;102521.94;6137117;23;20084;-77
2022/11/11 02:53:20;;;;;;;4.85;4.45;;;;;;;5.69;100.00;102443.94;6124649;23;20051;-72
2022/11/11 02:55:48;;;;;;;4.72;4.32;;;;;;;5.93;100.00;102474.22;6175534;23;20032;-73
2022/11/11 02:58:15;;;;;;;6.78;4.93;;;;;;;6.02;100.00;102495.06;6123991;23;20618;-73
2022/11/11 03:00:42;;;;;;;5.32;4.95;;;;;;;5.65;100.00;102439.59;6142515;23;20029;-73
2022/11/11 03:03:50;;;;;;;11.60;11.00;;;;;;;6.17;100.00;102518.47;6108509;23;20195;-72
2022/11/11 03:06:16;;;;;;;4.93;4.53;;;;;;;5.86;100.00;102489.03;6172774;23;20016;-73
2022/11/11 03:08:43;;;;;;;4.93;4.53;;;;;;;5.95;100.00;102511.59;6137343;23;21544;-74
2022/11/11 03:11:09;;;;;;;4.93;4.68;;;;;;;6.08;100.00;102559.34;6171998;23;20493;-73
2022/11/11 03:13:36;;;;;;;4.95;4.43;;;;;;;5.99;100.00;102542.88;6121438;23;20090;-73
2022/11/11 03:16:03;;;;;;;5.22;4.85;;;;;;;5.85;100.00;102522.91;6144462;23;20611;-74
2022/11/11 03:18:29;;;;;;;4.88;4.57;;;;;;;5.95;100.00;102535.94;6137572;23;20033;-73
2022/11/11 03:21:04;;;;;;;5.55;5.13;;;;;;;5.91;100.00;102562.84;6120752;23;20029;-72
2022/11/11 03:23:51;;;;;;;5.05;4.72;;;;;;;4.58;100.00;102319.28;6137708;23;20025;-72
2022/11/11 03:26:18;;;;;;;4.63;4.32;;;;;;;5.60;100.00;102497.78;6166705;23;20028;-72
2022/11/11 03:28:44;;;;;;;5.53;5.03;;;;;;;5.84;100.00;102540.28;6140098;23;20417;-72
2022/11/11 03:31:11;;;;;;;4.28;4.03;;;;;;;5.83;100.00;102543.75;6167375;23;20431;-72
2022/11/11 03:33:37;;;;;;;5.35;4.97;;;;;;;5.85;100.00;102564.59;6111736;23;20037;-72
2022/11/11 03:36:04;;;;;;;5.30;4.68;;;;;;;4.69;100.00;102346.16;6165784;23;20021;-72
2022/11/11 03:38:31;;;;;;;4.75;4.45;;;;;;;5.55;100.00;102486.53;6146093;23;20020;-73
2022/11/11 03:40:57;;;;;;;5.93;5.35;;;;;;;5.86;100.00;102540.28;6168726;23;20017;-73
2022/11/11 03:43:29;;;;;;;4.97;4.57;;;;;;;5.35;100.00;102465.75;6099583;23;20242;-72
2022/11/11 03:45:59;;;;;;;4.68;4.35;;;;;;;5.73;100.00;102526.41;6172693;23;20286;-73
2022/11/11 03:48:27;;;;;;;4.35;4.15;;;;;;;5.62;100.00;102520.38;6117519;23;20440;-72
2022/11/11 03:50:53;;;;;;;5.05;4.65;;;;;;;5.84;100.00;102552.44;6178172;23;20085;-73
2022/11/11 03:53:21;;;;;;;5.45;5.05;;;;;;;5.24;100.00;102444.06;6129018;23;20514;-72
2022/11/11 03:55:49;;;;;;;4.85;4.45;;;;;;;5.73;100.00;102540.31;6138199;23;20461;-73
2022/11/11 03:58:17;;;;;;;4.75;4.35;;;;;;;5.74;100.00;102547.25;6110863;23;20288;-75
2022/11/11 04:00:44;;;;;;;4.88;4.57;;;;;;;5.79;100.00;102547.22;6150643;23;20028;-73
2022/11/11 04:11:36;;;;;;;6.43;4.75;;;;;;;5.30;100.00;102457.06;6166427;23;20028;-73
2022/11/11 04:16:54;;;;;;;4.85;4.55;;;;;;;5.83;100.00;102559.38;6170915;23;20145;-72
2022/11/11 04:22:06;;;;;;;5.15;4.78;;;;;;;5.47;100.00;102511.72;6170366;23;20040;-73
2022/11/11 04:27:18;;;;;;;5.30;4.85;;;;;;;5.80;100.00;102560.25;6165004;23;20091;-73
2022/11/11 04:29:50;;;;;;;5.03;4.72;;;;;;;5.79;100.00;102570.66;6139693;23;20082;-74
2022/11/11 04:32:37;;;;;;;4.10;3.90;;;;;;;5.53;100.00;102548.16;6147429;23;20020;-74
2022/11/11 04:35:09;;;;;;;4.18;3.97;;;;;;;5.72;100.00;102575.03;6116957;23;20714;-74
2022/11/11 04:37:45;;;;;;;5.15;4.72;;;;;;;5.70;100.00;102566.34;6156662;23;20317;-74
2022/11/11 04:42:57;;;;;;;4.53;4.22;;;;;;;5.77;100.00;102577.63;6141845;23;20513;-72
2022/11/11 04:45:26;;;;;;;5.07;4.68;;;;;;;5.76;100.00;102579.38;6141569;23;20232;-74
2022/11/11 04:47:59;;;;;;;4.53;4.13;;;;;;;5.73;100.00;102576.78;6144908;23;20407;-73
2022/11/11 04:50:28;;;;;;;4.35;4.15;;;;;;;5.70;100.00;102582.00;6132413;23;20029;-73
2022/11/11 04:52:55;;;;;;;4.90;4.60;;;;;;;5.64;100.00;102578.53;6174517;23;20021;-73
2022/11/11 04:58:07;;;;;;;5.05;4.53;;;;;;;4.46;100.00;102386.88;6174142;23;20025;-73
2022/11/11 05:00:34;;;;;;;4.57;4.28;;;;;;;5.18;100.00;102512.59;6117355;23;20030;-73
2022/11/11 05:03:15;;;;;;;3.70;3.60;;;;;;;5.19;100.00;102516.94;6146719;23;20036;-72
2022/11/11 05:08:55;;;;;;;4.40;4.18;;;;;;;5.56;100.00;102574.19;6170689;23;20028;-76
2022/11/11 05:11:23;;;;;;;5.72;5.13;;;;;;;5.62;100.00;102572.47;6111549;23;20026;-72
2022/11/11 05:22:22;;;;;;;4.30;4.10;;;;;;;5.09;100.00;102496.13;6123706;23;20094;-73
2022/11/11 05:27:34;;;;;;;4.85;4.50;;;;;;;5.50;100.00;102563.78;6126387;23;20032;-72
2022/11/11 05:30:01;;;;;;;3.90;3.70;;;;;;;5.63;100.00;102587.19;6172666;23;20156;-73
2022/11/11 05:32:27;;;;;;;9.02;4.95;;;;;;;5.12;100.00;102498.72;6111464;23;20428;-74
2022/11/11 05:34:54;;;;;;;5.10;4.72;;;;;;;5.51;100.00;102555.13;6144778;23;20087;-73
2022/11/11 05:37:20;;;;;;;4.07;3.88;;;;;;;4.97;100.00;102483.97;6105769;23;20026;-72
2022/11/11 05:39:46;;;;;;;4.60;4.20;;;;;;;5.63;100.00;102601.09;6173471;23;20091;-72
2022/11/11 05:42:14;;;;;;;7.07;4.40;;;;;;;5.72;100.00;102608.91;6128987;23;20100;-74
2022/11/11 05:44:40;;;;;;;4.53;4.22;;;;;;;5.55;100.00;102588.09;6147096;23;20016;-73
2022/11/11 05:47:07;;;;;;;4.95;4.55;;;;;;;5.67;100.00;102623.66;6116419;23;20479;-72
2022/11/11 05:49:33;;;;;;;5.82;5.38;;;;;;;5.53;100.00;102592.44;6143575;23;20031;-73
2022/11/11 05:52:00;;;;;;;4.00;3.80;;;;;;;5.68;100.00;102614.13;6145393;23;20077;-72
2022/11/11 05:54:26;;;;;;;4.20;3.92;;;;;;;5.20;100.00;102542.09;6142417;23;20015;-73
2022/11/11 05:56:53;;;;;;;4.28;4.07;;;;;;;5.09;100.00;102545.56;6168518;23;20028;-73
2022/11/11 05:59:19;;;;;;;5.22;4.72;;;;;;;4.48;100.00;102435.41;6095896;23;20026;-72
2022/11/11 06:01:47;;;;;;;5.88;5.18;;;;;;;5.38;100.00;102602.84;6136656;23;20013;-72
2022/11/11 06:04:13;;;;;;;5.03;4.63;;;;;;;5.60;100.00;102632.38;6136736;23;20045;-72
2022/11/11 06:06:44;;;;;;;4.15;3.95;;;;;;;5.06;100.00;102545.56;6173813;23;20008;-73
2022/11/11 06:09:10;;;;;;;4.50;4.20;;;;;;;5.48;100.00;102619.34;6120032;23;20104;-73
2022/11/11 06:11:37;;;;;;;4.43;4.20;;;;;;;5.39;100.00;102608.06;6176448;23;20087;-72
2022/11/11 06:14:04;;;;;;;7.13;5.47;;;;;;;4.24;100.00;102417.19;6140739;23;20024;-73
2022/11/11 06:16:30;;;;;;;5.13;4.75;;;;;;;4.89;100.00;102537.75;6137497;23;20433;-73
2022/11/11 06:18:58;;;;;;;4.40;4.20;;;;;;;5.45;100.00;102638.41;6169307;23;20518;-73
2022/11/11 06:21:26;;;;;;;5.72;5.13;;;;;;;5.18;100.00;102608.91;6116947;23;20593;-73
2022/11/11 06:23:52;;;;;;;6.30;5.13;;;;;;;5.08;100.00;102591.53;6168668;23;20017;-73
2022/11/11 06:26:19;;;;;;;3.88;3.67;;;;;;;5.00;100.00;102583.72;6109477;23;20121;-73
2022/11/11 06:28:48;;;;;;;5.22;4.78;;;;;;;4.98;100.00;102580.25;6144440;23;20035;-73
2022/11/11 06:31:17;;;;;;;5.07;4.65;;;;;;;4.82;100.00;102557.69;6134077;23;20021;-73
2022/11/11 06:33:44;;;;;;;6.18;5.68;;;;;;;5.34;100.00;102638.41;6141951;23;20065;-73
2022/11/11 06:36:12;;;;;;;4.63;4.43;;;;;;;5.36;100.00;102649.72;6114302;23;20021;-73
2022/11/11 06:38:42;;;;;;;4.85;4.55;;;;;;;5.44;100.00;102652.31;6169181;23;20029;-73
2022/11/11 06:41:12;;;;;;;4.05;3.85;;;;;;;5.38;100.00;102652.31;6128838;23;20008;-73
2022/11/11 06:43:40;;;;;;;4.28;3.97;;;;;;;5.30;100.00;102638.44;6173676;23;20044;-73
2022/11/11 06:46:11;;;;;;;5.63;5.05;;;;;;;4.57;100.00;102518.63;6113090;23;20963;-73
2022/11/11 06:48:43;;;;;;;4.68;4.38;;;;;;;4.77;100.00;102554.19;6141417;23;20025;-74
2022/11/11 06:51:10;;;;;;;4.88;4.57;;;;;;;5.44;100.00;102659.28;6113966;23;20025;-74
2022/11/11 06:53:37;;;;;;;4.78;4.38;;;;;;;5.39;100.00;102659.25;6148776;23;20089;-73
2022/11/11 06:56:03;;;;;;;4.32;3.95;;;;;;;5.27;100.00;102635.81;6126927;23;20014;-74
2022/11/11 06:58:30;;;;;;;4.63;4.38;;;;;;;5.19;100.00;102621.06;6187627;23;20091;-74
2022/11/11 07:00:56;;;;;;;8.32;5.03;;;;;;;5.12;100.00;102606.28;6116376;23;20082;-75
2022/11/11 07:03:23;;;;;;;5.22;4.75;;;;;;;4.52;100.00;102501.28;6165415;23;20025;-74
2022/11/11 07:05:54;;;;;;;5.00;4.70;;;;;;;5.36;100.00;102639.28;6095789;23;20032;-73
2022/11/11 07:08:25;;;;;;;4.97;4.38;;;;;;;4.84;100.00;102544.69;6172747;23;20054;-73
2022/11/11 07:10:52;;;;;;;5.13;3.85;;;;;;;4.54;100.00;102484.81;6116163;23;20029;-73
2022/11/11 07:13:18;;;;;;;5.05;4.65;;;;;;;5.09;100.00;102571.59;6141756;23;20077;-74
2022/11/11 07:15:45;;;;;;;4.25;3.95;;;;;;;4.72;100.00;102503.91;6145145;23;20039;-73
2022/11/11 07:18:12;;;;;;;4.55;4.35;;;;;;;5.34;100.00;102615.00;6171459;23;20036;-73
2022/11/11 07:20:39;;;;;;;4.60;4.30;;;;;;;5.92;100.00;102696.63;6087346;23;20096;-73
2022/11/11 07:23:06;;;;;;;4.43;4.13;;;;;;;5.80;100.00;102672.28;6140314;23;20079;-76
2022/11/11 07:25:34;;;;;;;4.90;4.60;;;;;;;5.80;100.00;102661.88;6166632;23;20115;-75
2022/11/11 07:28:01;;;;;;;4.82;4.53;;;;;;;4.86;100.00;102493.53;6114730;23;20021;-75
2022/11/11 07:30:27;;;;;;;4.68;4.38;;;;;;;5.69;100.00;102640.19;6173058;23;20103;-74
2022/11/11 07:32:53;;;;;;;5.47;5.00;;;;;;;5.62;100.00;102609.78;6087035;23;20263;-73
2022/11/11 07:35:21;;;;;;;4.20;4.00;;;;;;;6.15;100.00;102688.78;6166106;23;20491;-74
2022/11/11 07:37:48;;;;;;;5.72;5.35;;;;;;;6.32;100.00;102701.81;6083618;23;20026;-73
2022/11/11 07:40:16;;;;;;;5.13;4.82;;;;;;;6.39;100.00;102698.28;6171002;23;20341;-74
2022/11/11 07:42:43;;;;;;;5.95;4.47;;;;;;;6.22;100.00;102680.09;6104179;23;20071;-74
2022/11/11 07:45:11;;;;;;;6.00;5.50;;;;;;;6.51;100.00;102697.41;6170251;23;20361;-74
2022/11/11 07:47:37;;;;;;;4.65;4.35;;;;;;;5.92;100.00;102619.28;6120022;23;20024;-75
2022/11/11 07:50:05;;;;;;;4.85;4.45;;;;;;;6.63;100.00;102699.97;6154701;23;20080;-74
2022/11/11 07:52:35;;;;;;;5.32;4.93;;;;;;;6.70;100.00;102706.03;6167519;23;20229;-74
2022/11/11 07:55:07;;;;;;;6.45;5.95;;;;;;;5.86;100.00;102543.75;6120910;23;20045;-74
2022/11/11 07:57:33;;;;;;;6.40;5.90;;;;;;;6.37;100.00;102632.22;6136399;23;20029;-74
2022/11/11 08:00:00;;;;;;;5.22;4.82;;;;;;;5.66;100.00;102506.47;6146493;23;20160;-75
2022/11/11 08:02:26;;;;;;;7.93;7.25;;;;;;;6.79;100.00;102699.06;6158602;23;20028;-74
2022/11/11 08:04:52;;;;;;;5.57;5.15;;;;;;;7.02;100.00;102710.25;6139266;23;20232;-74
2022/11/11 08:07:22;;;;;;;6.93;5.53;;;;;;;6.98;100.00;102697.22;6110702;23;20005;-74
2022/11/11 08:09:50;;;;;;;6.68;6.07;;;;;;;7.13;100.00;102724.97;6139245;23;20163;-74
2022/11/11 08:15:02;;;;;;;8.10;6.22;;;;;;;6.88;100.00;102639.84;6130672;23;20112;-74
2022/11/11 08:17:37;;;;;;;7.30;6.07;;;;;;;6.71;100.00;102596.44;6165071;23;20043;-74
2022/11/11 08:20:05;;;;;;;5.95;5.47;;;;;;;6.33;100.00;102515.78;6142499;23;20025;-77
2022/11/11 08:22:40;;;;;;;5.43;5.13;;;;;;;7.07;100.00;102624.94;6167086;23;20078;-74
2022/11/11 08:25:10;;;;;;;6.30;5.75;;;;;;;7.54;100.00;102692.50;6138845;23;20463;-74
2022/11/11 08:27:37;;;;;;;7.00;5.38;;;;;;;7.45;100.00;102658.59;6136968;23;20399;-74
2022/11/11 08:30:05;;;;;;;5.75;5.35;;;;;;;6.94;100.00;102564.97;6170087;23;20078;-75
2022/11/11 08:32:32;;;;;;;5.07;4.78;;;;;;;7.48;100.00;102642.94;6111132;23;20185;-73
2022/11/11 08:34:58;;;;;;;6.72;6.22;;;;;;;7.35;100.00;102625.59;6139284;23;20082;-73
2022/11/11 08:37:25;;;;;;;4.95;4.65;;;;;;;7.58;100.00;102646.34;6139258;23;20029;-74
2022/11/11 08:39:51;;;;;;;7.55;6.30;;;;;;;7.80;100.00;102662.69;6118482;23;20424;-73
2022/11/11 08:42:18;;;;;;;6.07;5.47;;;;;;;7.67;100.00;102645.38;6138736;23;20032;-73
2022/11/11 08:44:45;;;;;;;5.55;5.15;;;;;;;8.01;100.00;102682.53;6170122;23;20398;-73
2022/11/11 08:47:12;;;;;;;6.20;5.68;;;;;;;7.03;100.00;102500.53;6082181;23;20042;-72
2022/11/11 08:49:38;;;;;;;5.90;5.50;;;;;;;8.03;100.00;102661.59;6139861;23;20036;-73
2022/11/11 08:52:04;;;;;;;6.57;5.97;;;;;;;7.85;100.00;102623.44;6138567;23;20005;-73
2022/11/11 08:54:32;;;;;;;6.43;5.90;;;;;;;8.30;100.00;102681.34;6172803;23;20599;-73
2022/11/11 08:56:58;;;;;;;7.43;5.93;;;;;;;8.14;100.00;102641.44;6113923;23;20028;-73
2022/11/11 08:59:24;;;;;;;6.13;5.53;;;;;;;8.18;100.00;102633.53;6169868;23;20491;-75
2022/11/11 09:01:51;;;;;;;5.22;4.93;;;;;;;8.28;100.00;102636.94;6105505;23;20549;-73
2022/11/11 09:04:17;;;;;;;6.57;5.93;;;;;;;8.64;100.00;102687.13;6110543;23;20400;-73
2022/11/11 09:07:08;;;;;;;6.35;5.85;;;;;;;8.63;100.00;102677.53;6173049;23;20117;-75
2022/11/11 09:09:34;;;;;;;6.57;5.38;;;;;;;8.40;100.00;102633.31;6091305;23;20463;-73
2022/11/11 09:12:01;;;;;;;5.50;5.07;;;;;;;8.52;100.00;102640.16;6143177;23;20058;-73
2022/11/11 09:14:27;;;;;;;6.07;5.53;;;;;;;8.99;100.00;102711.97;6137968;23;20040;-73
2022/11/11 09:16:54;;;;;;;6.13;5.72;;;;;;;8.74;100.00;102664.28;6146367;23;20447;-73
2022/11/11 09:19:21;;;;;;;5.75;5.22;;;;;;;8.60;100.00;102630.47;6094730;23;20809;-73
2022/11/11 09:21:49;;;;;;;6.72;5.90;;;;;;;8.58;100.00;102616.53;6170351;23;20032;-73
2022/11/11 09:24:15;;;;;;;6.18;5.68;;;;;;;9.21;100.00;102703.84;6137117;23;20009;-74
2022/11/11 09:26:41;;;;;;;5.72;5.30;;;;;;;9.35;100.00;102713.22;6171516;23;20029;-74
2022/11/11 09:29:08;;;;;;;11.68;5.15;;;;;;;9.42;100.00;102700.03;6141017;23;20021;-73
2022/11/11 09:31:34;;;;;;;20.17;5.97;;;;;;;9.54;100.00;102715.56;6166979;23;20061;-73
2022/11/11 09:34:11;;;;;;;7.18;5.10;;;;;;;9.28;100.00;102677.53;6139430;23;20542;-73
2022/11/11 09:36:37;;;;;;;5.97;5.57;;;;;;;9.21;100.00;102646.22;6171205;23;20113;-72
2022/11/11 09:39:04;;;;;;;5.65;5.20;;;;;;;9.58;100.00;102702.41;6142907;23;20062;-75
2022/11/11 09:42:00;;;;;;;5.88;5.47;;;;;;;9.54;100.00;102695.47;6152831;23;20021;-75
2022/11/11 09:45:20;;;;;;;9.48;6.43;;;;;;;9.92;100.00;102735.94;6123084;23;20024;-74
2022/11/11 09:47:58;;;;;;;7.60;5.65;;;;;;;9.81;100.00;102716.88;6119242;23;20112;-74
2022/11/11 09:50:36;;;;;;;6.22;5.22;;;;;;;10.06;100.00;102756.66;6116439;23;20436;-74
2022/11/11 09:53:16;;;;;;;6.53;5.35;;;;;;;9.73;100.00;102680.31;6173900;23;20009;-74
2022/11/11 09:55:59;;;;;;;6.18;5.68;;;;;;;9.99;100.00;102731.44;6113284;23;20331;-74
2022/11/11 09:58:34;;;;;;;6.47;5.15;;;;;;;10.27;100.00;102749.34;6143731;23;20012;-74
2022/11/11 10:01:15;;;;;;;5.90;5.50;;;;;;;10.36;100.00;102751.81;6142816;23;20040;-74
2022/11/11 10:03:47;;;;;;;5.15;4.80;;;;;;;9.45;100.00;102605.66;6169147;23;20578;-74
2022/11/11 10:06:27;;;;;;;5.60;5.20;;;;;;;10.38;100.00;102757.91;6141025;23;20107;-73
2022/11/11 10:09:04;;;;;;;6.60;5.72;;;;;;;10.40;100.00;102744.75;6161968;23;20069;-73
2022/11/11 10:11:58;;;;;;;6.97;5.53;;;;;;;10.36;100.00;102742.19;6106287;23;20032;-73
2022/11/11 10:14:32;;;;;;;5.80;5.40;;;;;;;10.44;100.00;102744.66;6172293;23;20031;-73
2022/11/11 10:17:25;;;;;;;6.10;5.57;;;;;;;10.15;100.00;102690.06;6131464;23;20029;-73
2022/11/11 10:20:13;;;;;;;5.93;5.43;;;;;;;10.55;100.00;102753.22;6162480;23;20060;-73
2022/11/11 10:22:42;;;;;;;5.53;4.80;;;;;;;10.42;100.00;102729.84;6084246;23;20372;-73
2022/11/11 10:25:11;;;;;;;9.35;5.93;;;;;;;10.50;100.00;102748.94;6146472;23;20179;-75
2022/11/11 10:27:44;;;;;;;7.22;5.88;;;;;;;10.52;100.00;102755.03;6143608;23;20044;-73
2022/11/11 10:30:20;;;;;;;6.53;6.03;;;;;;;10.51;100.00;102751.53;6167275;23;20085;-73
2022/11/11 10:33:00;;;;;;;5.47;5.00;;;;;;;10.60;100.00;102752.25;6118014;23;20353;-73
2022/11/11 10:35:29;;;;;;;7.78;6.13;;;;;;;10.57;100.00;102713.81;6135961;23;20075;-73
2022/11/11 10:38:21;;;;;;;6.50;5.90;;;;;;;10.48;100.00;102693.81;6140427;23;20017;-71
2022/11/11 10:40:52;;;;;;;6.18;5.57;;;;;;;10.89;100.00;102751.69;6168355;23;20024;-71
2022/11/11 10:43:26;;;;;;;5.57;5.05;;;;;;;10.93;100.00;102751.59;6115506;23;20351;-70
2022/11/11 10:46:05;;;;;;;8.23;5.85;;;;;;;10.90;100.00;102753.41;6163391;23;20029;-70
2022/11/11 10:49:11;;;;;;;10.52;6.53;;;;;;;11.06;100.00;102753.94;6108629;23;20033;-70
2022/11/11 10:51:48;;;;;;;5.85;5.35;;;;;;;10.88;100.00;102718.41;6093243;23;20250;-72
2022/11/11 10:54:32;;;;;;;5.80;5.35;;;;;;;10.98;100.00;102746.22;6128514;23;20028;-69
2022/11/11 10:57:08;;;;;;;6.75;5.40;;;;;;;11.08;100.00;102763.53;6111300;23;20112;-74
2022/11/11 10:59:45;;;;;;;6.57;5.38;;;;;;;10.78;100.00;102708.13;6129822;23;20025;-72
2022/11/11 11:02:25;;;;;;;6.20;5.60;;;;;;;10.32;100.00;102611.94;6142955;23;20021;-73
2022/11/11 11:04:57;;;;;;;6.32;5.78;;;;;;;10.64;100.00;102649.75;6133750;23;20013;-71
2022/11/11 11:07:33;;;;;;;6.10;5.60;;;;;;;11.43;100.00;102767.16;6169678;23;20172;-72
2022/11/11 11:10:11;;;;;;;10.27;5.50;;;;;;;11.52;100.00;102759.03;6100600;23;20018;-73
2022/11/11 11:12:44;;;;;;;6.85;5.18;;;;;;;11.41;100.00;102742.66;6170916;23;20522;-73
2022/11/11 11:15:13;;;;;;;;;;;;;;;11.49;100.00;102755.66;6112544;23;20079;-72
2022/11/11 11:17:50;;;;;;;6.80;5.78;;;;;;;11.54;99.33;102757.25;6148272;23;20118;-73
2022/11/11 11:20:19;;;;;;;6.20;5.70;;;;;;;11.23;97.81;102704.53;6111890;23;20050;-73
2022/11/11 11:22:54;;;;;;;5.60;5.07;;;;;;;11.59;98.41;102757.16;6143126;23;20046;-73
2022/11/11 11:25:22;;;;;;;5.65;5.15;;;;;;;11.61;96.58;102757.13;6141825;23;20021;-73
2022/11/11 11:27:50;;;;;;;6.57;4.93;;;;;;;11.13;97.77;102672.31;6138318;23;20499;-72
2022/11/11 11:30:22;;;;;;;6.50;5.97;;;;;;;10.65;97.59;102575.34;6137942;23;20043;-75
2022/11/11 11:32:59;;;;;;;5.97;5.50;;;;;;;11.76;97.18;102746.22;6146162;23;20035;-72
2022/11/11 11:35:34;;;;;;;6.95;5.90;;;;;;;11.71;96.98;102733.19;6117733;23;20040;-73
2022/11/11 11:38:02;;;;;;;6.38;5.03;;;;;;;11.52;96.79;102710.84;6168431;23;20024;-75
2022/11/11 11:40:57;;;;;;;8.43;6.05;;;;;;;11.34;96.79;102696.38;6123959;23;20009;-75
2022/11/11 11:43:25;;;;;;;6.35;5.85;;;;;;;11.36;97.13;102681.44;6172966;23;20086;-76
2022/11/11 11:45:58;;;;;;;8.95;6.10;;;;;;;11.24;97.75;102637.91;6120490;23;20030;-75
2022/11/11 11:48:52;;;;;;;6.25;5.82;;;;;;;11.85;96.50;102740.75;6139359;23;20250;-75
2022/11/11 11:51:34;;;;;;;6.88;5.50;;;;;;;12.04;95.20;102740.31;6117364;23;20021;-75
2022/11/11 11:54:53;;;;;;;6.72;6.10;;;;;;;11.90;95.02;102696.78;6171962;23;20041;-76
2022/11/11 11:57:50;;;;;;;9.95;5.80;;;;;;;12.27;94.27;102742.34;6071949;23;20026;-74
2022/11/11 12:00:20;;;;;;;6.40;6.00;;;;;;;12.41;92.13;102728.78;6144134;23;20020;-74
2022/11/11 12:02:49;;;;;;;6.70;5.45;;;;;;;12.49;92.10;102730.34;6123523;23;20189;-74
2022/11/11 12:05:21;;;;;;;6.88;5.53;;;;;;;12.48;90.50;102725.09;6169637;23;20556;-75
2022/11/11 12:08:10;;;;;;;5.75;5.35;;;;;;;12.58;91.41;102726.56;6137813;23;20240;-76
2022/11/11 12:10:45;;;;;;;6.05;5.65;;;;;;;12.35;90.70;102672.78;6149381;23;20025;-74
2022/11/11 12:13:42;;;;;;;5.57;5.18;;;;;;;12.73;89.03;102718.25;6144769;23;20025;-75
2022/11/11 12:16:30;;;;;;;6.45;5.95;;;;;;;12.51;88.45;102651.28;6170436;23;20128;-76
2022/11/11 12:19:31;;;;;;;6.10;5.53;;;;;;;12.81;89.04;102672.34;6111372;23;20110;-75
2022/11/11 12:22:25;;;;;;;5.75;5.20;;;;;;;13.16;88.05;102693.22;6166948;23;20662;-74
2022/11/11 12:25:19;;;;;;;12.23;5.75;;;;;;;13.01;85.72;102635.72;6118468;23;20499;-75
2022/11/11 12:28:06;;;;;;;8.30;5.38;;;;;;;13.62;85.91;102695.34;6120841;23;20028;-76
2022/11/11 12:30:39;;;;;;;5.95;5.45;;;;;;;13.65;83.88;102668.84;6144517;23;20588;-75
2022/11/11 12:33:17;;;;;;;5.88;5.47;;;;;;;13.93;83.75;102680.19;6172966;23;20115;-75
2022/11/11 12:36:14;;;;;;;5.63;4.93;;;;;;;13.93;82.38;102669.63;6143539;23;20173;-75
2022/11/11 12:39:01;;;;;;;5.40;5.10;;;;;;;13.90;81.46;102653.91;6136764;23;20024;-75
2022/11/11 12:41:56;;;;;;;6.60;5.50;;;;;;;13.81;81.55;102654.22;6142876;23;20035;-74
2022/11/11 12:44:32;;;;;;;5.72;5.35;;;;;;;14.03;81.19;102650.81;6168123;23;20541;-74
2022/11/11 12:47:25;;;;;;;5.68;5.28;;;;;;;13.74;80.73;102621.03;6143938;23;20029;-75
2022/11/11 12:50:07;;;;;;;;;;;;;;;13.73;81.18;102643.94;6140502;23;20021;-75